Main page
METAR-TAF:

METAR-TAF

Airports :

Monterrey International Airport

Monterrey, Mexico

latitude: 25-47N, longitude: 100-06W, elevation: 1269 ft

Current weather observation

The report was made 1 hour and 17 minutes ago, at 18:40 UTC
Wind 12 mph from the East
Temperature 95°F
Humidity 42%
Pressure 29.88 in. Hg
Visibility: 15 miles
Scattered clouds at a height of 3000 ft

METAR: MMMY 141840Z 10010KT 15SM SCT030 35/20 A2988 RMK 8/500

Time: 14:57 (19:57 UTC)

Forecast

The report was made 2 hours and 41 minutes ago, at 17:16 UTC
Forecast valid from 14 at 18 UTC to 15 at 18 UTC
Wind 18 mph from the Southeast
Visibility: 6 miles
Scattered clouds at a height of 4000 ft
From 15 at 0300 UTC
Wind 18 mph from the South/Southeast
Visibility: 6 miles
Clear sky
From 15 at 1200 UTC
Wind 6 mph from the East/Southeast
Visibility: 6 miles
Scattered clouds at a height of 3000 ft

TAF: MMMY 141716Z 1418/1518 14016KT P6SM SCT040 TX38/1421Z TN25/1512Z FM150300 15016KT P6SM SKC FM151200 12005KT P6SM SCT030

Weather observations and forecasts of more than 4000 airports (METAR and TAF reports).

The available stations are represented by yellow and red dots on the map.

Hover mouse over dot to see the name of the station.

Then click to see weather observations and forecasts.

To change the map : click on the green buttons with a black cross to zoom in, on the green button with a dash to zoom out, or on the green arrows for adjacent maps.


METAR-TAF: